Clayton, NC (27520)

8:11 AM EDT on April 19, 2015 (GMT -0400)
Walden | | Change Station
CLOSE
Current Station
Personal Weather Station
Location: Clayton, NC
Elevation: 305 ft
Nearby Weather Stations

Elev 305 ft 35.65 °N, 78.44 °W | Updated 11 minutes ago

Overcast
Overcast
64.2 °F
Feels Like 64.2 °F
N
0.0
Wind Variable Wind from ESE

Today
High -- | Low -- °F
--% Chance of Precip.
Yesterday
High -- | Low -- °F
Precip. -- in
6:36 AM 7:50 PM
New Moon, 1% visible
Pressure 30.02 in
Visibility 3.0 miles
Clouds Overcast 200 ft
Dew Point 64 °F
Humidity 99%
Rainfall 0.40 in
Snow Depth Not available.
UV 0 out of 12
Pollen 2.10 out of 12
Air Quality Not available.
Flu Activity Sporadic
METAR KJNX 191155Z AUTO 00000KT 3SM BR OVC002 18/18 A3002 RMK AO2

More Conditions Fewer Conditions

Pressure 30.02 in
Visibility 3.0 miles
Clouds Overcast 200 ft
Dew Point 64 °F
Humidity 99%
Rainfall 0.40 in
Snow Depth Not available.
UV 0 out of 12
Pollen 2.10 out of 12
Air Quality Not available.
Flu Activity Sporadic
METAR KJNX 191155Z AUTO 00000KT 3SM BR OVC002 18/18 A3002 RMK AO2

More Conditions Fewer Conditions

10-Day Weather Forecast

Almanac

Astronomy

Apr. 19, 2015 Rise Set
Actual Time
Civil Twilight
Nautical Twilight
Astronomical Twilight
Moon
Length of Visible Light
Length of Day
Tomorrow will be .
, % of the Moon is Illuminated

Today's Extremes

State Highs State Lows

Community

WunderPhotos

Upload Photos

1,814,760 photos uploaded!

WunderBlogs® & News

Nearby

Air Quality

  Air Quality AQ Index Pollutant
Not available.

Snow Depth

Station Depth Elevation

Earthquake Activity

City Distance Mag. Time & Date
Minimum magnitude displayed is 2.5.

Coastal Water Temperatures

Place Temperature

Stations

Nearby Weather Stations

Station Location Temp. Windchill Dew Point Humidity Wind Precip. Elev Updated Type